Time;durP1;ratioP1;P1;durP2;ratioP2;P2;SDS_P1;SDS_P2;PMS_P1;PMS_P2;Temp;Humidity;BMP_temperature;BMP_pressure;BME280_temperature;BME280_humidity;BME280_pressure;Samples;Min_cycle;Max_cycle;Signal;HPM_P1;HPM_P2
2022/10/25 00:00:55;;;;;;;46.22;5.70;;;;;;;;;;4993123;28;20569;-68
2022/10/25 00:03:21;;;;;;;40.70;5.95;;;;;;;;;;4994963;28;20056;-69
2022/10/25 00:05:48;;;;;;;40.13;5.82;;;;;;;;;;4960043;28;20148;-68
2022/10/25 00:08:14;;;;;;;41.75;6.40;;;;;;;;;;4992585;28;20122;-67
2022/10/25 00:10:42;;;;;;;45.67;5.75;;;;;;;;;;4991389;28;20033;-69
2022/10/25 00:13:07;;;;;;;41.25;5.72;;;;;;;;;;4960002;28;20269;-68
2022/10/25 00:15:33;;;;;;;41.53;5.57;;;;;;;;;;4994943;28;20597;-68
2022/10/25 00:17:59;;;;;;;35.85;5.45;;;;;;;;;;4994642;28;20017;-68
2022/10/25 00:20:24;;;;;;;33.88;6.15;;;;;;;;;;4995795;28;20038;-68
2022/10/25 00:22:49;;;;;;;32.38;5.25;;;;;;;;;;4996408;28;20036;-68
2022/10/25 00:25:15;;;;;;;40.92;5.13;;;;;;;;;;4993302;28;20021;-67
2022/10/25 00:27:40;;;;;;;43.72;5.75;;;;;;;;;;4994898;28;21977;-68
2022/10/25 00:30:06;;;;;;;33.25;5.03;;;;;;;;;;4994047;28;20049;-68
2022/10/25 00:32:32;;;;;;;46.13;6.68;;;;;;;;;;4993953;28;20409;-68
2022/10/25 00:34:57;;;;;;;28.40;5.35;;;;;;;;;;4994543;28;20045;-68
2022/10/25 00:37:23;;;;;;;34.65;4.82;;;;;;;;;;4994095;28;20942;-68
2022/10/25 00:39:48;;;;;;;44.15;6.20;;;;;;;;;;4992360;28;20041;-67
2022/10/25 00:42:20;;;;;;;45.40;5.18;;;;;;;;;;4995036;28;20037;-67
2022/10/25 00:44:49;;;;;;;30.58;4.07;;;;;;;;;;4995012;28;20041;-68
2022/10/25 00:47:20;;;;;;;40.95;5.20;;;;;;;;;;4996348;28;20407;-68
2022/10/25 00:49:46;;;;;;;37.03;5.95;;;;;;;;;;4994245;28;20045;-67
2022/10/25 00:52:12;;;;;;;41.42;5.25;;;;;;;;;;5000628;28;20149;-67
2022/10/25 00:54:55;;;;;;;47.70;6.32;;;;;;;;;;4998347;28;20030;-69
2022/10/25 00:57:26;;;;;;;40.50;5.88;;;;;;;;;;4994218;28;20184;-68
2022/10/25 00:59:51;;;;;;;33.80;5.70;;;;;;;;;;4998428;28;20725;-67
2022/10/25 01:02:21;;;;;;;42.28;5.47;;;;;;;;;;4997380;28;20129;-67
2022/10/25 01:04:46;;;;;;;39.17;5.57;;;;;;;;;;4997855;28;20048;-69
2022/10/25 01:07:11;;;;;;;40.05;5.18;;;;;;;;;;4995624;28;20032;-67
2022/10/25 01:09:37;;;;;;;43.67;6.38;;;;;;;;;;4994745;28;20124;-66
2022/10/25 01:12:03;;;;;;;36.78;5.28;;;;;;;;;;4995687;28;20291;-69
2022/10/25 01:14:33;;;;;;;38.58;5.43;;;;;;;;;;4996469;28;20051;-69
2022/10/25 01:17:21;;;;;;;41.13;5.57;;;;;;;;;;4995247;28;20037;-69
2022/10/25 01:19:52;;;;;;;32.25;4.20;;;;;;;;;;4995802;28;20566;-68
2022/10/25 01:22:21;;;;;;;39.25;5.15;;;;;;;;;;4994766;28;20174;-68
2022/10/25 01:25:05;;;;;;;35.28;5.82;;;;;;;;;;4997476;28;20052;-68
2022/10/25 01:27:30;;;;;;;34.75;4.78;;;;;;;;;;4996049;28;20041;-68
2022/10/25 01:30:11;;;;;;;36.72;5.38;;;;;;;;;;4996845;28;20517;-68
2022/10/25 01:32:51;;;;;;;31.30;4.47;;;;;;;;;;4998422;28;20068;-68
2022/10/25 01:35:26;;;;;;;40.35;5.90;;;;;;;;;;4996558;28;20051;-68
2022/10/25 01:37:54;;;;;;;41.60;5.95;;;;;;;;;;4995910;28;20044;-68
2022/10/25 01:40:20;;;;;;;34.65;5.32;;;;;;;;;;4996120;28;20048;-68
2022/10/25 01:42:53;;;;;;;35.17;5.50;;;;;;;;;;4996546;28;20065;-68
2022/10/25 01:45:20;;;;;;;26.33;4.80;;;;;;;;;;4996113;28;20215;-68
2022/10/25 01:47:48;;;;;;;34.85;6.53;;;;;;;;;;4997064;28;20518;-68
2022/10/25 01:50:21;;;;;;;33.08;5.28;;;;;;;;;;4997016;28;20186;-66
2022/10/25 01:52:46;;;;;;;30.58;6.00;;;;;;;;;;4996005;28;20161;-67
2022/10/25 01:55:12;;;;;;;33.17;5.35;;;;;;;;;;4997313;28;20033;-66
2022/10/25 01:57:58;;;;;;;32.10;4.07;;;;;;;;;;4993966;28;20033;-68
2022/10/25 02:00:24;;;;;;;34.88;5.47;;;;;;;;;;4995982;28;20095;-69
2022/10/25 02:02:56;;;;;;;33.90;5.38;;;;;;;;;;4995720;28;20038;-72
2022/10/25 02:05:27;;;;;;;26.35;4.93;;;;;;;;;;5000410;28;22442;-69
2022/10/25 02:07:52;;;;;;;27.38;4.30;;;;;;;;;;4996900;28;20029;-69
2022/10/25 02:10:28;;;;;;;28.63;4.43;;;;;;;;;;4995978;28;20736;-69
2022/10/25 02:13:16;;;;;;;35.70;4.32;;;;;;;;;;4995387;28;20029;-69
2022/10/25 02:15:53;;;;;;;26.15;4.30;;;;;;;;;;4996170;28;20398;-68
2022/10/25 02:18:22;;;;;;;29.63;4.28;;;;;;;;;;4995449;28;20033;-69
2022/10/25 02:20:48;;;;;;;35.00;4.18;;;;;;;;;;4996426;28;20191;-70
2022/10/25 02:23:15;;;;;;;23.45;4.32;;;;;;;;;;4997645;28;20578;-68
2022/10/25 02:25:41;;;;;;;27.00;4.65;;;;;;;;;;4995532;28;20036;-67
2022/10/25 02:28:08;;;;;;;34.22;4.88;;;;;;;;;;4995687;28;20131;-70
2022/10/25 02:30:34;;;;;;;27.75;4.57;;;;;;;;;;4998542;28;20261;-69
2022/10/25 02:33:02;;;;;;;25.15;3.92;;;;;;;;;;4993139;28;20079;-68
2022/10/25 02:35:27;;;;;;;28.33;4.72;;;;;;;;;;4993553;28;20371;-68
2022/10/25 02:37:53;;;;;;;31.05;4.85;;;;;;;;;;4995222;28;20276;-67
2022/10/25 02:40:18;;;;;;;29.05;4.13;;;;;;;;;;4993699;28;20504;-69
2022/10/25 02:42:44;;;;;;;28.92;4.30;;;;;;;;;;4995222;28;20033;-68
2022/10/25 02:45:09;;;;;;;29.20;4.25;;;;;;;;;;4996678;28;20041;-68
2022/10/25 02:47:34;;;;;;;22.27;3.63;;;;;;;;;;4996013;28;20033;-69
2022/10/25 02:50:00;;;;;;;26.80;3.83;;;;;;;;;;4997775;28;20349;-69
2022/10/25 02:52:26;;;;;;;25.02;4.00;;;;;;;;;;4996000;28;20037;-69
2022/10/25 02:54:52;;;;;;;27.30;3.75;;;;;;;;;;4992253;28;20436;-69
2022/10/25 02:57:17;;;;;;;20.05;3.88;;;;;;;;;;4994432;28;20119;-69
2022/10/25 02:59:42;;;;;;;28.98;4.70;;;;;;;;;;4993017;28;20487;-70
2022/10/25 03:02:07;;;;;;;28.38;3.83;;;;;;;;;;4995621;28;20138;-66
2022/10/25 03:04:33;;;;;;;28.02;4.88;;;;;;;;;;4995290;28;20328;-67
2022/10/25 03:06:59;;;;;;;18.65;3.70;;;;;;;;;;4996945;28;20069;-69
2022/10/25 03:09:25;;;;;;;21.30;4.10;;;;;;;;;;4994917;28;20836;-70
2022/10/25 03:11:50;;;;;;;22.63;3.97;;;;;;;;;;4993670;28;20064;-69
2022/10/25 03:14:16;;;;;;;30.35;4.53;;;;;;;;;;4999091;28;20506;-68
2022/10/25 03:16:41;;;;;;;28.33;4.20;;;;;;;;;;4993667;28;20044;-70
2022/10/25 03:19:12;;;;;;;25.90;4.53;;;;;;;;;;4994673;28;20328;-67
2022/10/25 03:21:40;;;;;;;28.45;4.30;;;;;;;;;;4992288;28;20715;-70
2022/10/25 03:24:06;;;;;;;20.45;3.92;;;;;;;;;;4995422;28;20059;-70
2022/10/25 03:26:31;;;;;;;24.42;4.40;;;;;;;;;;4994309;28;20045;-69
2022/10/25 03:28:56;;;;;;;25.20;3.55;;;;;;;;;;4993721;28;20536;-69
2022/10/25 03:31:25;;;;;;;27.65;3.65;;;;;;;;;;4998190;28;20134;-70
2022/10/25 03:33:50;;;;;;;24.48;3.45;;;;;;;;;;4989066;28;20051;-69
2022/10/25 03:36:16;;;;;;;22.15;3.25;;;;;;;;;;4992609;28;20096;-68
2022/10/25 03:38:41;;;;;;;27.20;3.97;;;;;;;;;;4995677;28;20280;-69
2022/10/25 03:41:07;;;;;;;25.90;4.38;;;;;;;;;;4992939;28;20061;-69
2022/10/25 03:43:32;;;;;;;29.77;3.75;;;;;;;;;;4993880;28;20468;-69
2022/10/25 03:45:58;;;;;;;29.52;4.30;;;;;;;;;;4991375;28;20040;-69
2022/10/25 03:48:23;;;;;;;24.05;4.35;;;;;;;;;;4992630;28;20476;-69
2022/10/25 03:50:49;;;;;;;28.65;4.00;;;;;;;;;;4992150;28;21991;-70
2022/10/25 03:53:14;;;;;;;25.77;3.80;;;;;;;;;;4986194;28;20418;-69
2022/10/25 03:55:40;;;;;;;22.60;3.72;;;;;;;;;;4993585;28;21982;-70
2022/10/25 03:58:08;;;;;;;29.67;3.75;;;;;;;;;;4990993;28;20021;-68
2022/10/25 04:00:33;;;;;;;23.70;3.95;;;;;;;;;;5008789;28;20171;-68
2022/10/25 04:02:59;;;;;;;25.92;4.10;;;;;;;;;;4994033;28;21783;-69
2022/10/25 04:05:25;;;;;;;27.65;4.05;;;;;;;;;;4994941;28;20029;-68
2022/10/25 04:07:50;;;;;;;17.80;2.88;;;;;;;;;;4994018;28;20516;-69
2022/10/25 04:10:18;;;;;;;22.73;3.08;;;;;;;;;;4993650;28;20596;-69
2022/10/25 04:12:44;;;;;;;24.00;3.25;;;;;;;;;;4985473;28;20124;-69
2022/10/25 04:15:10;;;;;;;26.10;4.60;;;;;;;;;;4994433;28;20801;-70
2022/10/25 04:17:35;;;;;;;24.77;3.10;;;;;;;;;;4996112;28;20087;-69
2022/10/25 04:20:00;;;;;;;24.98;3.42;;;;;;;;;;4995296;28;20052;-69
2022/10/25 04:22:26;;;;;;;22.63;3.75;;;;;;;;;;4998190;28;20088;-69
2022/10/25 04:24:51;;;;;;;20.83;3.22;;;;;;;;;;4982681;28;20515;-68
2022/10/25 04:27:16;;;;;;;21.42;4.05;;;;;;;;;;4990014;28;20045;-70
2022/10/25 04:29:42;;;;;;;26.92;4.75;;;;;;;;;;5011476;28;20045;-69
2022/10/25 04:32:07;;;;;;;24.52;3.75;;;;;;;;;;4999983;28;20041;-69
2022/10/25 04:34:32;;;;;;;23.40;3.78;;;;;;;;;;4996174;28;20139;-70
2022/10/25 04:36:57;;;;;;;24.08;3.15;;;;;;;;;;4999268;28;20048;-68
2022/10/25 04:39:24;;;;;;;19.55;3.38;;;;;;;;;;4995245;28;20044;-69
2022/10/25 04:41:50;;;;;;;24.23;3.60;;;;;;;;;;4997153;28;20033;-69
2022/10/25 04:44:15;;;;;;;19.65;3.67;;;;;;;;;;4997302;28;20070;-68
2022/10/25 04:46:41;;;;;;;24.05;3.80;;;;;;;;;;4998590;28;21570;-68
2022/10/25 04:49:08;;;;;;;24.38;3.20;;;;;;;;;;4996275;28;20044;-69
2022/10/25 04:51:34;;;;;;;25.55;3.40;;;;;;;;;;4996795;28;20040;-69
2022/10/25 04:54:00;;;;;;;22.38;3.53;;;;;;;;;;4998511;28;20170;-69
2022/10/25 04:56:27;;;;;;;17.48;3.45;;;;;;;;;;4997292;28;20029;-69
2022/10/25 04:58:55;;;;;;;25.85;3.78;;;;;;;;;;4996526;28;20434;-69
2022/10/25 05:01:20;;;;;;;20.73;3.42;;;;;;;;;;4997622;28;20037;-69
2022/10/25 05:03:46;;;;;;;20.83;3.17;;;;;;;;;;4996396;28;20470;-69
2022/10/25 05:06:13;;;;;;;27.23;3.83;;;;;;;;;;4995797;28;20340;-68
2022/10/25 05:08:39;;;;;;;26.40;4.28;;;;;;;;;;4995150;28;20055;-69
2022/10/25 05:11:06;;;;;;;20.65;3.80;;;;;;;;;;4994437;28;20528;-67
2022/10/25 05:13:34;;;;;;;24.65;3.47;;;;;;;;;;4996252;28;20571;-67
2022/10/25 05:16:03;;;;;;;17.42;2.70;;;;;;;;;;4997266;28;20033;-66
2022/10/25 05:18:29;;;;;;;21.75;2.88;;;;;;;;;;4997758;28;20384;-69
2022/10/25 05:20:58;;;;;;;16.17;2.75;;;;;;;;;;4996499;28;20756;-68
2022/10/25 05:23:24;;;;;;;28.65;3.30;;;;;;;;;;4997331;28;20056;-67
2022/10/25 05:26:03;;;;;;;21.40;3.70;;;;;;;;;;4996862;28;20541;-67
2022/10/25 05:28:29;;;;;;;22.25;3.03;;;;;;;;;;4990879;28;20412;-68
2022/10/25 05:31:00;;;;;;;23.52;3.53;;;;;;;;;;4998941;28;20036;-68
2022/10/25 05:33:26;;;;;;;29.67;3.37;;;;;;;;;;4999940;28;20913;-67
2022/10/25 05:35:51;;;;;;;16.77;2.85;;;;;;;;;;4998334;28;20048;-67
2022/10/25 05:38:17;;;;;;;16.42;2.70;;;;;;;;;;4997438;28;20026;-67
2022/10/25 05:40:42;;;;;;;24.98;3.65;;;;;;;;;;4999594;28;20068;-67
2022/10/25 05:43:10;;;;;;;17.95;2.10;;;;;;;;;;4997245;28;20043;-67
2022/10/25 05:45:35;;;;;;;13.90;2.40;;;;;;;;;;4996789;28;20033;-66
2022/10/25 05:48:01;;;;;;;21.27;3.38;;;;;;;;;;4997814;28;20051;-66
2022/10/25 05:50:29;;;;;;;25.45;3.25;;;;;;;;;;4994000;28;20059;-68
2022/10/25 05:52:54;;;;;;;21.58;3.60;;;;;;;;;;4995807;28;20876;-68
2022/10/25 05:55:19;;;;;;;16.38;2.88;;;;;;;;;;5000859;28;20127;-68
2022/10/25 05:57:51;;;;;;;20.40;2.75;;;;;;;;;;5000920;28;20049;-68
2022/10/25 06:00:19;;;;;;;21.98;2.92;;;;;;;;;;4999882;28;22454;-67
2022/10/25 06:02:44;;;;;;;22.27;2.95;;;;;;;;;;4999460;28;21216;-67
2022/10/25 06:05:10;;;;;;;28.33;3.70;;;;;;;;;;4981843;28;20052;-68
2022/10/25 06:07:35;;;;;;;26.45;3.92;;;;;;;;;;5012753;28;20041;-70
2022/10/25 06:10:00;;;;;;;24.92;3.15;;;;;;;;;;4998761;28;20091;-67
2022/10/25 06:12:26;;;;;;;22.92;3.03;;;;;;;;;;4997582;28;20042;-69
2022/10/25 06:14:51;;;;;;;17.88;3.00;;;;;;;;;;4998742;28;20478;-67
2022/10/25 06:17:16;;;;;;;21.77;2.72;;;;;;;;;;4997077;28;20143;-68
2022/10/25 06:19:42;;;;;;;23.17;3.58;;;;;;;;;;4996252;28;20413;-68
2022/10/25 06:22:26;;;;;;;19.52;3.25;;;;;;;;;;5000503;28;20874;-68
2022/10/25 06:24:51;;;;;;;18.75;3.30;;;;;;;;;;5002199;28;20163;-66
2022/10/25 06:27:16;;;;;;;21.17;3.30;;;;;;;;;;4999120;28;20261;-69
2022/10/25 06:29:42;;;;;;;23.65;3.78;;;;;;;;;;4997563;28;20063;-69
2022/10/25 06:32:07;;;;;;;18.02;3.22;;;;;;;;;;5000720;28;20037;-68
2022/10/25 06:34:32;;;;;;;23.70;2.90;;;;;;;;;;4998666;28;20141;-67
2022/10/25 06:36:58;;;;;;;18.17;2.95;;;;;;;;;;4999401;28;20144;-67
2022/10/25 06:39:28;;;;;;;19.48;2.83;;;;;;;;;;5000263;28;20040;-69
2022/10/25 06:41:53;;;;;;;17.58;2.97;;;;;;;;;;4994366;28;20037;-69
2022/10/25 06:44:21;;;;;;;22.67;2.55;;;;;;;;;;4998726;28;20749;-68
2022/10/25 06:46:46;;;;;;;21.92;2.85;;;;;;;;;;4998182;28;20051;-68
2022/10/25 06:49:14;;;;;;;22.35;3.25;;;;;;;;;;5001385;28;20750;-68
2022/10/25 06:51:39;;;;;;;26.80;3.45;;;;;;;;;;4998085;28;20087;-68
2022/10/25 06:54:06;;;;;;;23.52;3.60;;;;;;;;;;5000065;28;20036;-68
2022/10/25 06:56:34;;;;;;;21.23;2.90;;;;;;;;;;4997510;28;20153;-68
2022/10/25 06:59:00;;;;;;;19.95;2.90;;;;;;;;;;5001234;28;20041;-68
2022/10/25 07:01:26;;;;;;;22.52;3.33;;;;;;;;;;4997582;28;20121;-67
2022/10/25 07:03:53;;;;;;;20.55;2.55;;;;;;;;;;4998161;28;20639;-69
2022/10/25 07:06:23;;;;;;;21.98;2.97;;;;;;;;;;4996181;28;20048;-68
2022/10/25 07:08:51;;;;;;;26.73;3.28;;;;;;;;;;4997955;28;20076;-68
2022/10/25 07:11:17;;;;;;;23.48;3.33;;;;;;;;;;4996714;28;20128;-68
2022/10/25 07:13:43;;;;;;;18.92;3.10;;;;;;;;;;5000270;28;20158;-69
2022/10/25 07:16:09;;;;;;;18.42;2.35;;;;;;;;;;4995684;28;20068;-68
2022/10/25 07:18:35;;;;;;;21.27;3.63;;;;;;;;;;4994672;28;20181;-67
2022/10/25 07:21:02;;;;;;;20.05;2.97;;;;;;;;;;5013347;28;20720;-67
2022/10/25 07:23:28;;;;;;;27.35;3.67;;;;;;;;;;5000422;28;20912;-69
2022/10/25 07:25:55;;;;;;;19.88;3.03;;;;;;;;;;4999102;28;20587;-68
2022/10/25 07:28:21;;;;;;;19.67;2.50;;;;;;;;;;4999751;28;20033;-67
2022/10/25 07:30:47;;;;;;;27.60;3.67;;;;;;;;;;4996230;28;20146;-67
2022/10/25 07:33:13;;;;;;;22.63;2.95;;;;;;;;;;4999507;28;20025;-68
2022/10/25 07:35:42;;;;;;;26.95;3.13;;;;;;;;;;4997706;28;20159;-68
2022/10/25 07:38:08;;;;;;;22.30;2.72;;;;;;;;;;4998598;28;20037;-68
2022/10/25 07:40:33;;;;;;;23.30;3.63;;;;;;;;;;4999903;28;20064;-69
2022/10/25 07:42:59;;;;;;;14.77;2.25;;;;;;;;;;4998190;28;20041;-68
2022/10/25 07:45:24;;;;;;;21.98;3.00;;;;;;;;;;5004105;28;20488;-68
2022/10/25 07:47:50;;;;;;;21.23;3.17;;;;;;;;;;4993843;28;20032;-69
2022/10/25 07:50:16;;;;;;;18.58;2.80;;;;;;;;;;4995640;28;20136;-68
2022/10/25 07:52:41;;;;;;;23.25;3.22;;;;;;;;;;5011510;28;20041;-68
2022/10/25 07:55:09;;;;;;;21.00;3.00;;;;;;;;;;4998395;28;20100;-68
2022/10/25 07:57:34;;;;;;;16.92;2.47;;;;;;;;;;4999880;28;20065;-67
2022/10/25 07:59:59;;;;;;;23.30;3.30;;;;;;;;;;4999585;28;20059;-68
2022/10/25 08:02:28;;;;;;;22.70;3.17;;;;;;;;;;5001367;28;20037;-68
2022/10/25 08:04:53;;;;;;;27.13;3.22;;;;;;;;;;5001743;28;20048;-68
2022/10/25 08:07:19;;;;;;;24.30;3.42;;;;;;;;;;4999920;28;21716;-68
2022/10/25 08:09:45;;;;;;;19.30;2.78;;;;;;;;;;5003151;28;20139;-68
2022/10/25 08:12:10;;;;;;;19.83;2.72;;;;;;;;;;5000282;28;20045;-68
2022/10/25 08:14:36;;;;;;;16.85;2.72;;;;;;;;;;5002344;28;20921;-69
2022/10/25 08:17:04;;;;;;;27.38;3.90;;;;;;;;;;4997663;28;20080;-68
2022/10/25 08:19:30;;;;;;;21.55;3.03;;;;;;;;;;4999439;28;20037;-71
2022/10/25 08:21:55;;;;;;;23.10;3.00;;;;;;;;;;4984293;28;20040;-69
2022/10/25 08:24:20;;;;;;;14.02;2.70;;;;;;;;;;4999204;28;20100;-68
2022/10/25 08:26:48;;;;;;;21.52;3.35;;;;;;;;;;5003720;28;20054;-68
2022/10/25 08:29:13;;;;;;;25.58;3.10;;;;;;;;;;4999751;28;20056;-69
2022/10/25 08:31:39;;;;;;;24.08;3.45;;;;;;;;;;5000571;28;22305;-69
2022/10/25 08:34:04;;;;;;;21.73;2.75;;;;;;;;;;4999248;28;20036;-68
2022/10/25 08:36:29;;;;;;;18.45;2.90;;;;;;;;;;5001213;28;20030;-68
2022/10/25 08:38:55;;;;;;;24.60;3.17;;;;;;;;;;5000003;28;20049;-70
2022/10/25 08:41:27;;;;;;;19.02;2.90;;;;;;;;;;5000283;28;20041;-67
2022/10/25 08:44:15;;;;;;;29.20;3.22;;;;;;;;;;4992936;28;20942;-68
2022/10/25 08:46:40;;;;;;;20.67;3.17;;;;;;;;;;4998967;28;20033;-70
2022/10/25 08:49:12;;;;;;;30.30;3.50;;;;;;;;;;5000983;28;20967;-67
2022/10/25 08:51:37;;;;;;;;;;;;;;;;;;4996958;28;20148;-69
2022/10/25 08:54:09;;;;;;;17.42;2.60;;;;;;;;;;4998562;28;19947;-69
2022/10/25 08:56:35;;;;;;;22.02;2.90;;;;;;;;;;4999759;28;20026;-68
2022/10/25 08:59:01;;;;;;;18.83;3.30;;;;;;;;;;5000053;28;20038;-67
2022/10/25 09:01:39;;;;;;;16.00;2.47;;;;;;;;;;4998783;28;20041;-67
2022/10/25 09:04:05;;;;;;;20.38;3.45;;;;;;;;;;4998547;28;20199;-66
2022/10/25 09:06:38;;;;;;;22.02;3.20;;;;;;;;;;4997736;28;20582;-67
2022/10/25 09:09:06;;;;;;;21.77;4.07;;;;;;;;;;4998409;28;22549;-66
2022/10/25 09:11:37;;;;;;;25.58;4.05;;;;;;;;;;5006509;28;20044;-69
2022/10/25 09:14:12;;;;;;;20.98;3.80;;;;;;;;;;4996910;28;20037;-67
2022/10/25 09:16:45;;;;;;;15.90;2.80;;;;;;;;;;4999670;28;21039;-68
2022/10/25 09:19:15;;;;;;;22.88;3.40;;;;;;;;;;4997322;28;20150;-68
2022/10/25 09:22:10;;;;;;;32.83;3.17;;;;;;;;;;5000152;28;20072;-67
2022/10/25 09:25:08;;;;;;;20.17;2.67;;;;;;;;;;4995634;28;20037;-67
2022/10/25 09:27:34;;;;;;;22.90;3.05;;;;;;;;;;4981274;28;20033;-68
2022/10/25 09:30:08;;;;;;;19.77;2.97;;;;;;;;;;5000110;28;20045;-67
2022/10/25 09:32:33;;;;;;;18.92;2.92;;;;;;;;;;4999997;28;20037;-67
2022/10/25 09:35:00;;;;;;;24.17;3.33;;;;;;;;;;4999086;28;20048;-68
2022/10/25 09:37:32;;;;;;;18.02;2.70;;;;;;;;;;4999901;28;20176;-68
2022/10/25 09:40:03;;;;;;;23.30;2.72;;;;;;;;;;4999488;28;20089;-68
2022/10/25 09:42:37;;;;;;;23.20;2.95;;;;;;;;;;4997200;28;20047;-68
2022/10/25 09:45:13;;;;;;;24.40;2.90;;;;;;;;;;5000454;28;20064;-65
2022/10/25 09:47:44;;;;;;;20.88;2.90;;;;;;;;;;4999913;28;20289;-67
2022/10/25 09:50:28;;;;;;;18.92;3.08;;;;;;;;;;5000954;28;20140;-66
2022/10/25 09:53:29;;;;;;;23.23;3.63;;;;;;;;;;4999526;28;20803;-66
2022/10/25 09:55:56;;;;;;;25.80;3.47;;;;;;;;;;5000458;28;20047;-66
2022/10/25 09:58:25;;;;;;;27.80;3.75;;;;;;;;;;5000528;28;20718;-66
2022/10/25 10:00:52;;;;;;;21.85;3.42;;;;;;;;;;4999590;28;20075;-67
2022/10/25 10:03:19;;;;;;;23.95;3.25;;;;;;;;;;4997983;28;20044;-67
2022/10/25 10:05:49;;;;;;;24.77;3.47;;;;;;;;;;5012109;28;20061;-69
2022/10/25 10:08:15;;;;;;;22.35;3.72;;;;;;;;;;4999601;28;20044;-67
2022/10/25 10:10:44;;;;;;;16.20;3.50;;;;;;;;;;5001181;28;20045;-66
2022/10/25 10:13:18;;;;;;;24.63;3.50;;;;;;;;;;5000193;28;20090;-66
2022/10/25 10:15:49;;;;;;;21.92;4.85;;;;;;;;;;4999554;28;20036;-68
2022/10/25 10:18:17;;;;;;;22.95;5.88;;;;;;;;;;4998194;28;20048;-67
2022/10/25 10:20:55;;;;;;;19.33;5.55;;;;;;;;;;4999445;28;20838;-69
2022/10/25 10:23:20;;;;;;;25.33;6.40;;;;;;;;;;4998199;28;20047;-69
2022/10/25 10:25:46;;;;;;;21.80;6.15;;;;;;;;;;5007198;28;20071;-67
2022/10/25 10:28:12;;;;;;;17.50;5.10;;;;;;;;;;4997074;28;20099;-68
2022/10/25 10:30:38;;;;;;;20.95;5.13;;;;;;;;;;4996656;28;20133;-67
2022/10/25 10:33:08;;;;;;;20.10;5.55;;;;;;;;;;4996647;28;20123;-67
2022/10/25 10:35:34;;;;;;;16.20;5.53;;;;;;;;;;4999440;28;20468;-67
2022/10/25 10:38:12;;;;;;;21.98;6.10;;;;;;;;;;4998519;28;20030;-66
2022/10/25 10:40:37;;;;;;;17.95;6.20;;;;;;;;;;4996755;28;20037;-68
2022/10/25 10:43:23;;;;;;;18.42;6.13;;;;;;;;;;4997106;28;20278;-68
2022/10/25 10:45:49;;;;;;;20.48;5.93;;;;;;;;;;4991359;28;20030;-69
2022/10/25 10:48:21;;;;;;;22.73;6.57;;;;;;;;;;4996679;28;20032;-67
2022/10/25 10:50:48;;;;;;;17.42;6.15;;;;;;;;;;4997399;28;20052;-67
2022/10/25 10:53:21;;;;;;;20.63;5.72;;;;;;;;;;4996945;28;20061;-68
2022/10/25 10:55:48;;;;;;;21.65;5.60;;;;;;;;;;4994916;28;20782;-66
2022/10/25 10:58:15;;;;;;;15.60;4.88;;;;;;;;;;4995081;28;20398;-68
2022/10/25 11:00:47;;;;;;;17.10;5.05;;;;;;;;;;4994756;28;20590;-69
2022/10/25 11:03:45;;;;;;;19.52;5.22;;;;;;;;;;4998621;28;20040;-69
2022/10/25 11:06:14;;;;;;;12.63;4.95;;;;;;;;;;4998702;28;20080;-69
2022/10/25 11:09:19;;;;;;;17.75;5.75;;;;;;;;;;5013008;28;20041;-68
2022/10/25 11:12:03;;;;;;;20.40;5.20;;;;;;;;;;5013880;28;20115;-69
2022/10/25 11:14:28;;;;;;;16.90;5.57;;;;;;;;;;5011576;28;20036;-68
2022/10/25 11:16:53;;;;;;;14.43;5.55;;;;;;;;;;5015039;28;20099;-70
2022/10/25 11:19:27;;;;;;;16.30;5.53;;;;;;;;;;5000556;28;20037;-68
2022/10/25 11:21:59;;;;;;;16.35;5.78;;;;;;;;;;4987177;28;21241;-68
2022/10/25 11:24:30;;;;;;;26.92;7.05;;;;;;;;;;5010410;28;21941;-69
2022/10/25 11:27:10;;;;;;;18.15;6.95;;;;;;;;;;5010375;28;20032;-71
2022/10/25 11:29:36;;;;;;;21.23;6.82;;;;;;;;;;5006300;28;20576;-67
2022/10/25 11:32:20;;;;;;;23.20;7.35;;;;;;;;;;5010590;28;20040;-70
2022/10/25 11:34:48;;;;;;;15.00;6.78;;;;;;;;;;4993341;28;20041;-69
2022/10/25 11:37:20;;;;;;;20.08;6.25;;;;;;;;;;5010543;28;20046;-68
2022/10/25 11:40:01;;;;;;;21.70;6.20;;;;;;;;;;4991854;28;20041;-68
2022/10/25 11:42:35;;;;;;;20.73;6.18;;;;;;;;;;4991828;28;21900;-70
2022/10/25 11:45:03;;;;;;;16.92;5.00;;;;;;;;;;4994064;28;20301;-70
2022/10/25 11:47:47;;;;;;;22.25;5.80;;;;;;;;;;4995016;28;20349;-68
2022/10/25 11:50:12;;;;;;;19.75;6.28;;;;;;;;;;4995026;28;20122;-68
2022/10/25 11:52:40;;;;;;;17.92;5.88;;;;;;;;;;5009559;28;20396;-66
2022/10/25 11:55:16;;;;;;;19.10;5.47;;;;;;;;;;4993475;28;20604;-68
2022/10/25 11:58:07;;;;;;;16.70;4.88;;;;;;;;;;4993652;28;20136;-69
2022/10/25 12:00:52;;;;;;;17.88;5.55;;;;;;;;;;4997147;28;20041;-69
2022/10/25 12:03:24;;;;;;;19.20;5.32;;;;;;;;;;4995935;28;20049;-68
2022/10/25 12:06:08;;;;;;;18.45;5.05;;;;;;;;;;4994850;28;20179;-71
2022/10/25 12:08:43;;;;;;;21.77;5.07;;;;;;;;;;4976416;28;20542;-69
2022/10/25 12:11:20;;;;;;;15.85;4.85;;;;;;;;;;4992573;28;20405;-69
2022/10/25 12:13:55;;;;;;;17.48;4.53;;;;;;;;;;4993770;28;20457;-68
2022/10/25 12:16:22;;;;;;;15.82;4.75;;;;;;;;;;4994237;28;20420;-69
2022/10/25 12:18:49;;;;;;;18.55;4.13;;;;;;;;;;4998198;28;20037;-68
2022/10/25 12:21:19;;;;;;;19.45;5.07;;;;;;;;;;4993742;28;20295;-66
2022/10/25 12:23:46;;;;;;;24.67;4.93;;;;;;;;;;4992388;28;20055;-71
2022/10/25 12:26:32;;;;;;;25.02;5.18;;;;;;;;;;4994356;28;20094;-67
2022/10/25 12:28:59;;;;;;;21.75;5.50;;;;;;;;;;4995079;28;20072;-67
2022/10/25 12:31:24;;;;;;;23.70;5.60;;;;;;;;;;4993035;28;20030;-68
2022/10/25 12:33:56;;;;;;;27.88;5.88;;;;;;;;;;4993662;28;20026;-68
2022/10/25 12:36:34;;;;;;;24.77;5.72;;;;;;;;;;4983238;28;20044;-67
2022/10/25 12:39:04;;;;;;;24.77;5.55;;;;;;;;;;5007726;28;20041;-70
2022/10/25 12:41:33;;;;;;;23.90;5.95;;;;;;;;;;4993578;28;20030;-66
2022/10/25 12:44:17;;;;;;;20.80;5.00;;;;;;;;;;4995112;28;20033;-67
2022/10/25 12:46:42;;;;;;;22.25;6.35;;;;;;;;;;4997907;28;20489;-67
2022/10/25 12:49:27;;;;;;;24.58;6.00;;;;;;;;;;4998223;28;20434;-67
2022/10/25 12:51:58;;;;;;;20.00;5.03;;;;;;;;;;4998747;28;21837;-66
2022/10/25 12:54:31;;;;;;;25.52;5.32;;;;;;;;;;4996473;28;20103;-70
2022/10/25 12:57:03;;;;;;;20.73;4.90;;;;;;;;;;4998432;28;20045;-69
2022/10/25 12:59:44;;;;;;;22.65;4.57;;;;;;;;;;4997742;28;20385;-69
2022/10/25 13:02:17;;;;;;;23.80;5.25;;;;;;;;;;4997749;28;20037;-71
2022/10/25 13:04:43;;;;;;;19.83;5.05;;;;;;;;;;4997203;28;20242;-71
2022/10/25 13:07:08;;;;;;;21.95;4.55;;;;;;;;;;4997131;28;20284;-71
2022/10/25 13:09:35;;;;;;;22.77;5.30;;;;;;;;;;4998433;28;20436;-73
2022/10/25 13:12:06;;;;;;;19.58;4.90;;;;;;;;;;4996702;28;20513;-69
2022/10/25 13:14:41;;;;;;;18.40;4.95;;;;;;;;;;4993244;28;20611;-73
2022/10/25 13:17:19;;;;;;;20.23;4.50;;;;;;;;;;4995467;28;20037;-70
2022/10/25 13:19:51;;;;;;;25.95;4.40;;;;;;;;;;4992026;28;20037;-71
2022/10/25 13:22:39;;;;;;;18.23;4.43;;;;;;;;;;4998155;28;20144;-72
2022/10/25 13:25:11;;;;;;;22.48;4.60;;;;;;;;;;4997154;28;20490;-69
2022/10/25 13:27:36;;;;;;;22.80;4.25;;;;;;;;;;4998835;28;20095;-68
2022/10/25 13:30:16;;;;;;;26.90;5.38;;;;;;;;;;5006437;28;20058;-72
2022/10/25 13:33:03;;;;;;;23.17;5.25;;;;;;;;;;4997807;28;20391;-69
2022/10/25 13:35:28;;;;;;;24.73;5.35;;;;;;;;;;4997986;28;20388;-68
2022/10/25 13:38:04;;;;;;;25.35;4.63;;;;;;;;;;4998778;28;20030;-71
2022/10/25 13:40:37;;;;;;;29.33;4.97;;;;;;;;;;4977119;28;20780;-72
2022/10/25 13:43:17;;;;;;;23.00;4.57;;;;;;;;;;4977821;28;20052;-72
2022/10/25 13:45:44;;;;;;;15.35;3.78;;;;;;;;;;4976453;28;20064;-68
2022/10/25 13:48:15;;;;;;;18.08;4.10;;;;;;;;;;4978440;28;20435;-69
2022/10/25 13:50:42;;;;;;;25.00;4.25;;;;;;;;;;4997345;28;20531;-70
2022/10/25 13:53:13;;;;;;;25.88;4.63;;;;;;;;;;4993379;28;20624;-72
2022/10/25 13:55:45;;;;;;;15.05;3.28;;;;;;;;;;4994645;28;20075;-69
2022/10/25 13:58:40;;;;;;;15.43;3.75;;;;;;;;;;4996675;28;20037;-71
2022/10/25 14:01:11;;;;;;;17.08;3.72;;;;;;;;;;4993120;28;20053;-72
2022/10/25 14:03:54;;;;;;;15.77;3.75;;;;;;;;;;4976463;28;20026;-70
2022/10/25 14:06:25;;;;;;;21.00;4.32;;;;;;;;;;4977482;28;20318;-69
2022/10/25 14:09:13;;;;;;;22.60;4.97;;;;;;;;;;4997162;28;20965;-69
2022/10/25 14:11:49;;;;;;;21.67;4.70;;;;;;;;;;4996255;28;20037;-69
2022/10/25 14:14:33;;;;;;;17.80;4.15;;;;;;;;;;4978516;28;20026;-71
2022/10/25 14:17:04;;;;;;;14.10;3.97;;;;;;;;;;4989491;28;21150;-70
2022/10/25 14:19:29;;;;;;;16.80;4.10;;;;;;;;;;4997041;28;20741;-70
2022/10/25 14:21:55;;;;;;;20.25;3.97;;;;;;;;;;4998363;28;20028;-69
2022/10/25 14:24:20;;;;;;;25.20;4.90;;;;;;;;;;4995485;28;20053;-72
2022/10/25 14:27:04;;;;;;;24.85;4.22;;;;;;;;;;4998242;28;20133;-68
2022/10/25 14:29:30;;;;;;;15.18;3.83;;;;;;;;;;5003450;28;20077;-70
2022/10/25 14:31:55;;;;;;;20.98;4.47;;;;;;;;;;4996649;28;20036;-72
2022/10/25 14:34:22;;;;;;;26.38;4.70;;;;;;;;;;4998258;28;20127;-68
2022/10/25 14:36:52;;;;;;;33.42;5.03;;;;;;;;;;5001554;28;20037;-67
2022/10/25 14:39:29;;;;;;;23.05;4.50;;;;;;;;;;4995749;28;20532;-69
2022/10/25 14:41:56;;;;;;;28.48;4.53;;;;;;;;;;4996544;28;20138;-68
2022/10/25 14:44:27;;;;;;;25.30;5.18;;;;;;;;;;4997510;28;20133;-68